sensor_id;sensor_type;location;lat;lon;timestamp;P1;durP1;ratioP1;P2;durP2;ratioP2
76814;SDS011;65768;49.906;19.384;2023-06-22T00:01:24;8.40;;;5.50;;
76814;SDS011;65768;49.906;19.384;2023-06-22T00:03:52;9.60;;;5.50;;
76814;SDS011;65768;49.906;19.384;2023-06-22T00:06:20;8.90;;;6.00;;
76814;SDS011;65768;49.906;19.384;2023-06-22T00:08:48;9.90;;;6.00;;
76814;SDS011;65768;49.906;19.384;2023-06-22T00:11:16;11.10;;;7.20;;
76814;SDS011;65768;49.906;19.384;2023-06-22T00:13:44;7.60;;;5.30;;
76814;SDS011;65768;49.906;19.384;2023-06-22T00:16:12;9.80;;;6.60;;
76814;SDS011;65768;49.906;19.384;2023-06-22T00:18:41;10.20;;;6.40;;
76814;SDS011;65768;49.906;19.384;2023-06-22T00:21:14;9.50;;;5.50;;
76814;SDS011;65768;49.906;19.384;2023-06-22T00:23:42;11.50;;;7.00;;
76814;SDS011;65768;49.906;19.384;2023-06-22T00:26:11;8.90;;;5.80;;
76814;SDS011;65768;49.906;19.384;2023-06-22T00:28:39;9.90;;;5.60;;
76814;SDS011;65768;49.906;19.384;2023-06-22T00:31:07;9.70;;;6.20;;
76814;SDS011;65768;49.906;19.384;2023-06-22T00:33:35;9.40;;;6.10;;
76814;SDS011;65768;49.906;19.384;2023-06-22T00:36:03;12.40;;;7.20;;
76814;SDS011;65768;49.906;19.384;2023-06-22T00:38:33;12.60;;;7.40;;
76814;SDS011;65768;49.906;19.384;2023-06-22T00:41:01;9.40;;;5.90;;
76814;SDS011;65768;49.906;19.384;2023-06-22T00:43:30;9.60;;;6.40;;
76814;SDS011;65768;49.906;19.384;2023-06-22T00:45:58;11.50;;;6.50;;
76814;SDS011;65768;49.906;19.384;2023-06-22T00:48:26;10.80;;;7.00;;
76814;SDS011;65768;49.906;19.384;2023-06-22T00:50:55;8.30;;;6.40;;
76814;SDS011;65768;49.906;19.384;2023-06-22T00:53:23;8.20;;;5.80;;
76814;SDS011;65768;49.906;19.384;2023-06-22T00:55:51;10.80;;;6.00;;
76814;SDS011;65768;49.906;19.384;2023-06-22T00:58:21;10.50;;;6.40;;
76814;SDS011;65768;49.906;19.384;2023-06-22T01:00:51;13.60;;;6.10;;
76814;SDS011;65768;49.906;19.384;2023-06-22T01:03:19;10.30;;;6.60;;
76814;SDS011;65768;49.906;19.384;2023-06-22T01:05:48;8.70;;;6.30;;
76814;SDS011;65768;49.906;19.384;2023-06-22T01:11:08;10.40;;;6.80;;
76814;SDS011;65768;49.906;19.384;2023-06-22T01:13:57;11.50;;;7.10;;
76814;SDS011;65768;49.906;19.384;2023-06-22T01:16:35;9.40;;;6.00;;
76814;SDS011;65768;49.906;19.384;2023-06-22T01:22:15;10.70;;;6.30;;
76814;SDS011;65768;49.906;19.384;2023-06-22T01:24:51;9.90;;;6.30;;
76814;SDS011;65768;49.906;19.384;2023-06-22T01:27:32;9.70;;;5.80;;
76814;SDS011;65768;49.906;19.384;2023-06-22T01:30:19;11.00;;;6.20;;
76814;SDS011;65768;49.906;19.384;2023-06-22T01:32:48;11.10;;;6.50;;
76814;SDS011;65768;49.906;19.384;2023-06-22T01:35:18;9.40;;;5.90;;
76814;SDS011;65768;49.906;19.384;2023-06-22T01:37:48;8.90;;;5.50;;
76814;SDS011;65768;49.906;19.384;2023-06-22T01:40:17;6.50;;;4.80;;
76814;SDS011;65768;49.906;19.384;2023-06-22T01:42:47;8.90;;;5.70;;
76814;SDS011;65768;49.906;19.384;2023-06-22T01:45:16;9.20;;;5.60;;
76814;SDS011;65768;49.906;19.384;2023-06-22T01:47:46;8.00;;;5.10;;
76814;SDS011;65768;49.906;19.384;2023-06-22T01:50:15;12.10;;;6.60;;
76814;SDS011;65768;49.906;19.384;2023-06-22T01:52:43;10.20;;;6.00;;
76814;SDS011;65768;49.906;19.384;2023-06-22T01:55:11;10.90;;;6.20;;
76814;SDS011;65768;49.906;19.384;2023-06-22T01:57:39;10.60;;;6.50;;
76814;SDS011;65768;49.906;19.384;2023-06-22T02:03:34;10.50;;;5.70;;
76814;SDS011;65768;49.906;19.384;2023-06-22T02:06:19;10.60;;;5.50;;
76814;SDS011;65768;49.906;19.384;2023-06-22T02:08:57;11.30;;;6.20;;
76814;SDS011;65768;49.906;19.384;2023-06-22T02:11:28;10.20;;;6.30;;
76814;SDS011;65768;49.906;19.384;2023-06-22T02:13:58;10.80;;;6.20;;
76814;SDS011;65768;49.906;19.384;2023-06-22T02:16:27;11.30;;;5.90;;
76814;SDS011;65768;49.906;19.384;2023-06-22T02:18:58;11.80;;;6.30;;
76814;SDS011;65768;49.906;19.384;2023-06-22T02:21:30;12.30;;;6.60;;
76814;SDS011;65768;49.906;19.384;2023-06-22T02:23:59;10.70;;;6.40;;
76814;SDS011;65768;49.906;19.384;2023-06-22T02:26:27;11.30;;;5.70;;
76814;SDS011;65768;49.906;19.384;2023-06-22T02:28:55;7.50;;;5.80;;
76814;SDS011;65768;49.906;19.384;2023-06-22T02:31:23;8.70;;;5.10;;
76814;SDS011;65768;49.906;19.384;2023-06-22T02:33:58;10.50;;;5.60;;
76814;SDS011;65768;49.906;19.384;2023-06-22T02:36:26;11.00;;;6.00;;
76814;SDS011;65768;49.906;19.384;2023-06-22T02:38:55;13.00;;;6.20;;
76814;SDS011;65768;49.906;19.384;2023-06-22T02:41:27;17.70;;;6.20;;
76814;SDS011;65768;49.906;19.384;2023-06-22T02:43:55;10.50;;;5.90;;
76814;SDS011;65768;49.906;19.384;2023-06-22T02:46:23;12.10;;;6.40;;
76814;SDS011;65768;49.906;19.384;2023-06-22T02:48:52;16.00;;;7.60;;
76814;SDS011;65768;49.906;19.384;2023-06-22T02:51:20;11.70;;;6.40;;
76814;SDS011;65768;49.906;19.384;2023-06-22T02:53:48;12.00;;;5.60;;
76814;SDS011;65768;49.906;19.384;2023-06-22T02:56:19;11.70;;;7.20;;
76814;SDS011;65768;49.906;19.384;2023-06-22T02:58:52;9.70;;;6.50;;
76814;SDS011;65768;49.906;19.384;2023-06-22T03:01:20;11.20;;;6.40;;
76814;SDS011;65768;49.906;19.384;2023-06-22T03:03:51;9.60;;;6.60;;
76814;SDS011;65768;49.906;19.384;2023-06-22T03:06:20;15.00;;;7.20;;
76814;SDS011;65768;49.906;19.384;2023-06-22T03:08:50;13.20;;;7.00;;
76814;SDS011;65768;49.906;19.384;2023-06-22T03:11:19;12.60;;;7.20;;
76814;SDS011;65768;49.906;19.384;2023-06-22T03:13:47;15.90;;;7.60;;
76814;SDS011;65768;49.906;19.384;2023-06-22T03:16:15;13.50;;;8.80;;
76814;SDS011;65768;49.906;19.384;2023-06-22T03:18:43;12.60;;;8.50;;
76814;SDS011;65768;49.906;19.384;2023-06-22T03:21:12;15.40;;;8.10;;
76814;SDS011;65768;49.906;19.384;2023-06-22T03:23:41;12.90;;;8.40;;
76814;SDS011;65768;49.906;19.384;2023-06-22T03:26:10;13.70;;;8.40;;
76814;SDS011;65768;49.906;19.384;2023-06-22T03:28:39;15.10;;;8.20;;
76814;SDS011;65768;49.906;19.384;2023-06-22T03:31:07;12.60;;;8.40;;
76814;SDS011;65768;49.906;19.384;2023-06-22T03:33:35;15.00;;;8.10;;
76814;SDS011;65768;49.906;19.384;2023-06-22T03:36:04;15.50;;;9.30;;
76814;SDS011;65768;49.906;19.384;2023-06-22T03:38:32;15.00;;;9.00;;
76814;SDS011;65768;49.906;19.384;2023-06-22T03:41:01;14.20;;;8.40;;
76814;SDS011;65768;49.906;19.384;2023-06-22T03:43:29;15.80;;;8.20;;
76814;SDS011;65768;49.906;19.384;2023-06-22T03:45:57;12.60;;;8.40;;
76814;SDS011;65768;49.906;19.384;2023-06-22T03:48:25;15.70;;;8.60;;
76814;SDS011;65768;49.906;19.384;2023-06-22T03:50:53;13.70;;;9.00;;
76814;SDS011;65768;49.906;19.384;2023-06-22T03:53:21;11.50;;;7.90;;
76814;SDS011;65768;49.906;19.384;2023-06-22T03:55:52;12.50;;;7.70;;
76814;SDS011;65768;49.906;19.384;2023-06-22T03:58:21;10.80;;;7.20;;
76814;SDS011;65768;49.906;19.384;2023-06-22T04:00:49;13.40;;;6.00;;
76814;SDS011;65768;49.906;19.384;2023-06-22T04:03:19;11.30;;;6.80;;
76814;SDS011;65768;49.906;19.384;2023-06-22T04:05:47;11.30;;;6.50;;
76814;SDS011;65768;49.906;19.384;2023-06-22T04:08:16;11.80;;;6.50;;
76814;SDS011;65768;49.906;19.384;2023-06-22T04:10:44;11.30;;;7.00;;
76814;SDS011;65768;49.906;19.384;2023-06-22T04:13:12;11.60;;;6.20;;
76814;SDS011;65768;49.906;19.384;2023-06-22T04:15:41;11.00;;;6.30;;
76814;SDS011;65768;49.906;19.384;2023-06-22T04:18:08;12.50;;;6.70;;
76814;SDS011;65768;49.906;19.384;2023-06-22T04:20:36;13.50;;;6.40;;
76814;SDS011;65768;49.906;19.384;2023-06-22T04:23:04;11.40;;;6.20;;
76814;SDS011;65768;49.906;19.384;2023-06-22T04:25:33;11.20;;;5.60;;
76814;SDS011;65768;49.906;19.384;2023-06-22T04:28:01;7.50;;;5.70;;
76814;SDS011;65768;49.906;19.384;2023-06-22T04:30:32;11.30;;;6.50;;
76814;SDS011;65768;49.906;19.384;2023-06-22T04:33:00;14.20;;;6.40;;
76814;SDS011;65768;49.906;19.384;2023-06-22T04:35:29;10.00;;;6.60;;
76814;SDS011;65768;49.906;19.384;2023-06-22T04:37:57;9.90;;;6.50;;
76814;SDS011;65768;49.906;19.384;2023-06-22T04:40:26;14.70;;;6.20;;
76814;SDS011;65768;49.906;19.384;2023-06-22T04:42:54;12.20;;;5.90;;
76814;SDS011;65768;49.906;19.384;2023-06-22T04:45:23;11.00;;;6.50;;
76814;SDS011;65768;49.906;19.384;2023-06-22T04:47:51;12.40;;;6.30;;
76814;SDS011;65768;49.906;19.384;2023-06-22T04:50:19;11.80;;;6.70;;
76814;SDS011;65768;49.906;19.384;2023-06-22T04:52:48;10.60;;;5.10;;
76814;SDS011;65768;49.906;19.384;2023-06-22T04:55:18;11.30;;;6.60;;
76814;SDS011;65768;49.906;19.384;2023-06-22T04:57:47;9.20;;;4.90;;
76814;SDS011;65768;49.906;19.384;2023-06-22T05:00:17;7.00;;;4.40;;
76814;SDS011;65768;49.906;19.384;2023-06-22T05:02:47;10.30;;;5.00;;
76814;SDS011;65768;49.906;19.384;2023-06-22T05:05:16;9.80;;;5.50;;
76814;SDS011;65768;49.906;19.384;2023-06-22T05:07:46;11.60;;;5.20;;
76814;SDS011;65768;49.906;19.384;2023-06-22T05:10:16;16.00;;;6.40;;
76814;SDS011;65768;49.906;19.384;2023-06-22T05:12:44;12.20;;;5.30;;
76814;SDS011;65768;49.906;19.384;2023-06-22T05:15:12;13.20;;;5.70;;
76814;SDS011;65768;49.906;19.384;2023-06-22T05:17:40;12.00;;;5.60;;
76814;SDS011;65768;49.906;19.384;2023-06-22T05:20:10;9.00;;;5.10;;
76814;SDS011;65768;49.906;19.384;2023-06-22T05:22:40;9.30;;;5.30;;
76814;SDS011;65768;49.906;19.384;2023-06-22T05:25:08;9.20;;;4.80;;
76814;SDS011;65768;49.906;19.384;2023-06-22T05:27:38;11.60;;;6.40;;
76814;SDS011;65768;49.906;19.384;2023-06-22T05:30:07;8.50;;;4.70;;
76814;SDS011;65768;49.906;19.384;2023-06-22T05:32:36;9.20;;;5.10;;
76814;SDS011;65768;49.906;19.384;2023-06-22T05:35:04;7.90;;;6.00;;
76814;SDS011;65768;49.906;19.384;2023-06-22T05:37:32;13.30;;;6.20;;
76814;SDS011;65768;49.906;19.384;2023-06-22T05:40:01;13.00;;;5.80;;
76814;SDS011;65768;49.906;19.384;2023-06-22T05:42:30;10.70;;;6.00;;
76814;SDS011;65768;49.906;19.384;2023-06-22T05:44:58;12.20;;;6.20;;
76814;SDS011;65768;49.906;19.384;2023-06-22T05:47:26;9.00;;;5.40;;
76814;SDS011;65768;49.906;19.384;2023-06-22T05:49:54;11.30;;;7.00;;
76814;SDS011;65768;49.906;19.384;2023-06-22T05:52:23;10.80;;;6.90;;
76814;SDS011;65768;49.906;19.384;2023-06-22T05:54:51;13.70;;;7.60;;
76814;SDS011;65768;49.906;19.384;2023-06-22T05:57:19;10.30;;;7.30;;
76814;SDS011;65768;49.906;19.384;2023-06-22T05:59:49;17.50;;;8.60;;
76814;SDS011;65768;49.906;19.384;2023-06-22T06:02:17;12.60;;;8.10;;
76814;SDS011;65768;49.906;19.384;2023-06-22T06:04:45;13.10;;;7.80;;
76814;SDS011;65768;49.906;19.384;2023-06-22T06:07:13;14.50;;;8.90;;
76814;SDS011;65768;49.906;19.384;2023-06-22T06:09:41;16.80;;;9.40;;
76814;SDS011;65768;49.906;19.384;2023-06-22T06:12:09;15.00;;;9.30;;
76814;SDS011;65768;49.906;19.384;2023-06-22T06:14:37;16.40;;;8.60;;
76814;SDS011;65768;49.906;19.384;2023-06-22T06:17:06;16.30;;;9.20;;
76814;SDS011;65768;49.906;19.384;2023-06-22T06:19:34;13.20;;;8.90;;
76814;SDS011;65768;49.906;19.384;2023-06-22T06:22:02;14.80;;;7.70;;
76814;SDS011;65768;49.906;19.384;2023-06-22T06:24:31;15.10;;;8.80;;
76814;SDS011;65768;49.906;19.384;2023-06-22T06:26:59;13.30;;;7.60;;
76814;SDS011;65768;49.906;19.384;2023-06-22T06:29:27;15.00;;;8.80;;
76814;SDS011;65768;49.906;19.384;2023-06-22T06:31:55;14.00;;;9.20;;
76814;SDS011;65768;49.906;19.384;2023-06-22T06:34:24;16.10;;;9.70;;
76814;SDS011;65768;49.906;19.384;2023-06-22T06:36:52;14.90;;;8.70;;
76814;SDS011;65768;49.906;19.384;2023-06-22T06:39:21;14.70;;;10.00;;
76814;SDS011;65768;49.906;19.384;2023-06-22T06:41:49;16.50;;;10.10;;
76814;SDS011;65768;49.906;19.384;2023-06-22T06:44:17;14.10;;;9.40;;
76814;SDS011;65768;49.906;19.384;2023-06-22T06:46:45;22.40;;;10.80;;
76814;SDS011;65768;49.906;19.384;2023-06-22T06:49:15;15.60;;;10.40;;
76814;SDS011;65768;49.906;19.384;2023-06-22T06:51:47;18.60;;;12.70;;
76814;SDS011;65768;49.906;19.384;2023-06-22T06:54:17;17.50;;;10.90;;
76814;SDS011;65768;49.906;19.384;2023-06-22T06:56:49;17.90;;;10.40;;
76814;SDS011;65768;49.906;19.384;2023-06-22T06:59:20;18.90;;;11.70;;
76814;SDS011;65768;49.906;19.384;2023-06-22T07:01:51;15.10;;;9.60;;
76814;SDS011;65768;49.906;19.384;2023-06-22T07:04:21;21.40;;;11.50;;
76814;SDS011;65768;49.906;19.384;2023-06-22T07:06:50;20.80;;;13.00;;
76814;SDS011;65768;49.906;19.384;2023-06-22T07:09:21;20.10;;;11.80;;
76814;SDS011;65768;49.906;19.384;2023-06-22T07:11:51;14.60;;;10.50;;
76814;SDS011;65768;49.906;19.384;2023-06-22T07:14:21;19.70;;;12.00;;
76814;SDS011;65768;49.906;19.384;2023-06-22T07:16:54;19.80;;;12.60;;
76814;SDS011;65768;49.906;19.384;2023-06-22T07:19:25;23.20;;;12.40;;
76814;SDS011;65768;49.906;19.384;2023-06-22T07:21:59;18.00;;;11.80;;
76814;SDS011;65768;49.906;19.384;2023-06-22T07:24:30;18.80;;;11.60;;
76814;SDS011;65768;49.906;19.384;2023-06-22T07:27:01;17.70;;;11.70;;
76814;SDS011;65768;49.906;19.384;2023-06-22T07:29:32;16.40;;;11.50;;
76814;SDS011;65768;49.906;19.384;2023-06-22T07:32:03;17.80;;;11.50;;
76814;SDS011;65768;49.906;19.384;2023-06-22T07:34:34;17.60;;;10.80;;
76814;SDS011;65768;49.906;19.384;2023-06-22T07:37:04;18.20;;;12.30;;
76814;SDS011;65768;49.906;19.384;2023-06-22T07:39:33;17.50;;;11.70;;
76814;SDS011;65768;49.906;19.384;2023-06-22T07:42:02;19.90;;;12.50;;
76814;SDS011;65768;49.906;19.384;2023-06-22T07:44:30;17.60;;;13.20;;
76814;SDS011;65768;49.906;19.384;2023-06-22T07:46:58;14.60;;;10.20;;
76814;SDS011;65768;49.906;19.384;2023-06-22T07:49:27;18.80;;;12.50;;
76814;SDS011;65768;49.906;19.384;2023-06-22T07:51:55;15.40;;;11.30;;
76814;SDS011;65768;49.906;19.384;2023-06-22T07:54:23;17.20;;;12.20;;
76814;SDS011;65768;49.906;19.384;2023-06-22T07:56:52;15.80;;;11.00;;
76814;SDS011;65768;49.906;19.384;2023-06-22T07:59:20;16.20;;;10.80;;
76814;SDS011;65768;49.906;19.384;2023-06-22T08:01:49;18.10;;;12.00;;
76814;SDS011;65768;49.906;19.384;2023-06-22T08:04:17;18.40;;;12.00;;
76814;SDS011;65768;49.906;19.384;2023-06-22T08:06:45;19.00;;;11.70;;
76814;SDS011;65768;49.906;19.384;2023-06-22T08:09:13;16.40;;;11.00;;
76814;SDS011;65768;49.906;19.384;2023-06-22T08:11:41;16.30;;;11.70;;
76814;SDS011;65768;49.906;19.384;2023-06-22T08:14:09;15.20;;;10.60;;
76814;SDS011;65768;49.906;19.384;2023-06-22T08:16:37;18.40;;;12.10;;
76814;SDS011;65768;49.906;19.384;2023-06-22T08:19:08;20.00;;;12.20;;
76814;SDS011;65768;49.906;19.384;2023-06-22T08:21:36;18.40;;;12.90;;
76814;SDS011;65768;49.906;19.384;2023-06-22T08:24:05;18.80;;;12.80;;
76814;SDS011;65768;49.906;19.384;2023-06-22T08:26:35;16.90;;;12.40;;
76814;SDS011;65768;49.906;19.384;2023-06-22T08:29:05;18.40;;;13.00;;
76814;SDS011;65768;49.906;19.384;2023-06-22T08:31:33;15.10;;;11.70;;
76814;SDS011;65768;49.906;19.384;2023-06-22T08:34:02;15.00;;;11.20;;
76814;SDS011;65768;49.906;19.384;2023-06-22T08:36:30;16.10;;;10.80;;
76814;SDS011;65768;49.906;19.384;2023-06-22T08:39:05;14.80;;;11.60;;
76814;SDS011;65768;49.906;19.384;2023-06-22T08:41:33;17.50;;;11.80;;
76814;SDS011;65768;49.906;19.384;2023-06-22T08:44:01;15.50;;;11.30;;
76814;SDS011;65768;49.906;19.384;2023-06-22T08:46:30;16.10;;;11.40;;
76814;SDS011;65768;49.906;19.384;2023-06-22T08:48:59;14.80;;;10.10;;
76814;SDS011;65768;49.906;19.384;2023-06-22T08:51:28;20.40;;;12.00;;
76814;SDS011;65768;49.906;19.384;2023-06-22T08:53:57;15.10;;;11.20;;
76814;SDS011;65768;49.906;19.384;2023-06-22T08:56:27;15.90;;;12.30;;
76814;SDS011;65768;49.906;19.384;2023-06-22T08:58:55;13.90;;;10.30;;
76814;SDS011;65768;49.906;19.384;2023-06-22T09:01:23;16.60;;;11.10;;
76814;SDS011;65768;49.906;19.384;2023-06-22T09:03:51;16.90;;;11.70;;
76814;SDS011;65768;49.906;19.384;2023-06-22T09:06:23;19.00;;;13.80;;
76814;SDS011;65768;49.906;19.384;2023-06-22T09:08:52;16.30;;;11.80;;
76814;SDS011;65768;49.906;19.384;2023-06-22T09:11:20;17.70;;;11.30;;
76814;SDS011;65768;49.906;19.384;2023-06-22T09:13:48;15.50;;;11.30;;
76814;SDS011;65768;49.906;19.384;2023-06-22T09:16:16;17.80;;;12.10;;
76814;SDS011;65768;49.906;19.384;2023-06-22T09:18:47;15.10;;;11.20;;
76814;SDS011;65768;49.906;19.384;2023-06-22T09:21:15;18.40;;;12.20;;
76814;SDS011;65768;49.906;19.384;2023-06-22T09:23:44;16.30;;;11.80;;
76814;SDS011;65768;49.906;19.384;2023-06-22T09:26:14;16.90;;;11.80;;
76814;SDS011;65768;49.906;19.384;2023-06-22T09:28:42;17.10;;;12.20;;
76814;SDS011;65768;49.906;19.384;2023-06-22T09:31:10;14.40;;;11.10;;
76814;SDS011;65768;49.906;19.384;2023-06-22T09:33:39;19.10;;;11.90;;
76814;SDS011;65768;49.906;19.384;2023-06-22T09:36:08;15.50;;;11.60;;
76814;SDS011;65768;49.906;19.384;2023-06-22T09:38:36;16.60;;;11.60;;
76814;SDS011;65768;49.906;19.384;2023-06-22T09:41:05;15.60;;;11.70;;
76814;SDS011;65768;49.906;19.384;2023-06-22T09:43:33;17.70;;;13.30;;
76814;SDS011;65768;49.906;19.384;2023-06-22T09:46:03;17.40;;;12.70;;
76814;SDS011;65768;49.906;19.384;2023-06-22T09:48:31;19.50;;;11.90;;
76814;SDS011;65768;49.906;19.384;2023-06-22T09:50:59;14.10;;;11.70;;
76814;SDS011;65768;49.906;19.384;2023-06-22T09:53:27;16.90;;;13.10;;
76814;SDS011;65768;49.906;19.384;2023-06-22T09:55:56;17.70;;;13.60;;
76814;SDS011;65768;49.906;19.384;2023-06-22T09:58:24;18.00;;;13.40;;
76814;SDS011;65768;49.906;19.384;2023-06-22T10:00:53;16.00;;;12.30;;
76814;SDS011;65768;49.906;19.384;2023-06-22T10:03:22;18.40;;;13.20;;
76814;SDS011;65768;49.906;19.384;2023-06-22T10:05:50;16.90;;;13.60;;
76814;SDS011;65768;49.906;19.384;2023-06-22T10:08:18;21.20;;;14.20;;
76814;SDS011;65768;49.906;19.384;2023-06-22T10:10:46;14.80;;;12.30;;
76814;SDS011;65768;49.906;19.384;2023-06-22T10:13:14;16.30;;;13.20;;
76814;SDS011;65768;49.906;19.384;2023-06-22T10:15:42;15.70;;;12.80;;
76814;SDS011;65768;49.906;19.384;2023-06-22T10:18:13;24.10;;;15.30;;
76814;SDS011;65768;49.906;19.384;2023-06-22T10:20:41;16.50;;;13.00;;
76814;SDS011;65768;49.906;19.384;2023-06-22T10:23:09;21.00;;;15.70;;
76814;SDS011;65768;49.906;19.384;2023-06-22T10:25:37;17.30;;;13.90;;
76814;SDS011;65768;49.906;19.384;2023-06-22T10:28:05;17.60;;;13.40;;
76814;SDS011;65768;49.906;19.384;2023-06-22T10:30:33;17.60;;;13.60;;
76814;SDS011;65768;49.906;19.384;2023-06-22T10:33:01;18.30;;;14.70;;
76814;SDS011;65768;49.906;19.384;2023-06-22T10:35:29;17.20;;;13.70;;
76814;SDS011;65768;49.906;19.384;2023-06-22T10:37:57;17.00;;;14.10;;
76814;SDS011;65768;49.906;19.384;2023-06-22T10:40:25;19.60;;;14.00;;
76814;SDS011;65768;49.906;19.384;2023-06-22T10:42:53;16.70;;;14.80;;
76814;SDS011;65768;49.906;19.384;2023-06-22T10:45:21;16.60;;;14.50;;
76814;SDS011;65768;49.906;19.384;2023-06-22T10:47:49;16.70;;;14.70;;
76814;SDS011;65768;49.906;19.384;2023-06-22T10:50:17;17.60;;;14.60;;
76814;SDS011;65768;49.906;19.384;2023-06-22T10:52:45;20.90;;;15.70;;
76814;SDS011;65768;49.906;19.384;2023-06-22T10:55:13;16.80;;;14.10;;
76814;SDS011;65768;49.906;19.384;2023-06-22T10:57:41;18.00;;;14.10;;
76814;SDS011;65768;49.906;19.384;2023-06-22T11:00:12;19.60;;;16.90;;
76814;SDS011;65768;49.906;19.384;2023-06-22T11:02:41;16.60;;;14.80;;
76814;SDS011;65768;49.906;19.384;2023-06-22T11:05:09;16.40;;;14.20;;
76814;SDS011;65768;49.906;19.384;2023-06-22T11:07:40;17.60;;;14.70;;
76814;SDS011;65768;49.906;19.384;2023-06-22T11:10:09;19.30;;;14.90;;
76814;SDS011;65768;49.906;19.384;2023-06-22T11:12:38;22.20;;;15.30;;
76814;SDS011;65768;49.906;19.384;2023-06-22T11:15:06;16.30;;;13.10;;
76814;SDS011;65768;49.906;19.384;2023-06-22T11:17:35;23.00;;;17.80;;
76814;SDS011;65768;49.906;19.384;2023-06-22T11:20:08;20.70;;;16.00;;
76814;SDS011;65768;49.906;19.384;2023-06-22T11:22:38;18.60;;;15.00;;
76814;SDS011;65768;49.906;19.384;2023-06-22T11:25:10;16.60;;;13.70;;
76814;SDS011;65768;49.906;19.384;2023-06-22T11:27:39;16.80;;;13.60;;
76814;SDS011;65768;49.906;19.384;2023-06-22T11:30:07;14.10;;;12.20;;
76814;SDS011;65768;49.906;19.384;2023-06-22T11:32:36;17.40;;;13.60;;
76814;SDS011;65768;49.906;19.384;2023-06-22T11:35:04;17.20;;;14.00;;
76814;SDS011;65768;49.906;19.384;2023-06-22T11:37:32;15.10;;;13.00;;
76814;SDS011;65768;49.906;19.384;2023-06-22T11:40:01;15.80;;;13.60;;
76814;SDS011;65768;49.906;19.384;2023-06-22T11:42:32;16.90;;;13.70;;
76814;SDS011;65768;49.906;19.384;2023-06-22T11:45:00;19.80;;;14.90;;
76814;SDS011;65768;49.906;19.384;2023-06-22T11:47:29;16.00;;;13.90;;
76814;SDS011;65768;49.906;19.384;2023-06-22T11:49:57;16.70;;;14.40;;
76814;SDS011;65768;49.906;19.384;2023-06-22T11:52:25;16.60;;;14.70;;
76814;SDS011;65768;49.906;19.384;2023-06-22T11:54:54;18.00;;;13.70;;
76814;SDS011;65768;49.906;19.384;2023-06-22T11:57:22;16.10;;;13.40;;
76814;SDS011;65768;49.906;19.384;2023-06-22T11:59:50;18.20;;;14.90;;
76814;SDS011;65768;49.906;19.384;2023-06-22T12:02:18;17.10;;;15.20;;
76814;SDS011;65768;49.906;19.384;2023-06-22T12:04:46;15.00;;;13.40;;
76814;SDS011;65768;49.906;19.384;2023-06-22T12:07:14;16.10;;;13.80;;
76814;SDS011;65768;49.906;19.384;2023-06-22T12:09:43;17.50;;;14.40;;
76814;SDS011;65768;49.906;19.384;2023-06-22T12:12:11;16.70;;;14.80;;
76814;SDS011;65768;49.906;19.384;2023-06-22T12:14:39;16.30;;;14.60;;
76814;SDS011;65768;49.906;19.384;2023-06-22T12:17:07;16.70;;;14.50;;
76814;SDS011;65768;49.906;19.384;2023-06-22T12:19:35;18.50;;;14.00;;
76814;SDS011;65768;49.906;19.384;2023-06-22T12:22:03;20.70;;;15.00;;
76814;SDS011;65768;49.906;19.384;2023-06-22T12:24:31;16.90;;;13.40;;
76814;SDS011;65768;49.906;19.384;2023-06-22T12:26:59;15.80;;;13.40;;
76814;SDS011;65768;49.906;19.384;2023-06-22T12:29:27;13.90;;;12.50;;
76814;SDS011;65768;49.906;19.384;2023-06-22T12:31:55;14.60;;;12.40;;
76814;SDS011;65768;49.906;19.384;2023-06-22T12:34:23;14.90;;;12.60;;
76814;SDS011;65768;49.906;19.384;2023-06-22T12:36:51;14.40;;;12.80;;
76814;SDS011;65768;49.906;19.384;2023-06-22T12:39:22;14.60;;;13.10;;
76814;SDS011;65768;49.906;19.384;2023-06-22T12:41:50;15.70;;;12.90;;
76814;SDS011;65768;49.906;19.384;2023-06-22T12:44:18;15.70;;;13.20;;
76814;SDS011;65768;49.906;19.384;2023-06-22T12:46:46;15.70;;;13.70;;
76814;SDS011;65768;49.906;19.384;2023-06-22T12:53:14;17.50;;;14.90;;
76814;SDS011;65768;49.906;19.384;2023-06-22T12:55:42;20.70;;;15.90;;
76814;SDS011;65768;49.906;19.384;2023-06-22T12:58:10;15.40;;;13.80;;
76814;SDS011;65768;49.906;19.384;2023-06-22T13:00:38;15.00;;;13.40;;
76814;SDS011;65768;49.906;19.384;2023-06-22T13:03:06;19.50;;;16.30;;
76814;SDS011;65768;49.906;19.384;2023-06-22T13:05:35;15.00;;;13.40;;
76814;SDS011;65768;49.906;19.384;2023-06-22T13:08:04;15.90;;;14.20;;
76814;SDS011;65768;49.906;19.384;2023-06-22T13:10:32;18.20;;;13.50;;
76814;SDS011;65768;49.906;19.384;2023-06-22T13:13:00;14.10;;;12.60;;
76814;SDS011;65768;49.906;19.384;2023-06-22T13:15:28;16.20;;;14.50;;
76814;SDS011;65768;49.906;19.384;2023-06-22T13:17:57;16.60;;;12.80;;
76814;SDS011;65768;49.906;19.384;2023-06-22T13:20:25;15.40;;;13.20;;
76814;SDS011;65768;49.906;19.384;2023-06-22T13:22:53;17.40;;;13.10;;
76814;SDS011;65768;49.906;19.384;2023-06-22T13:25:21;15.10;;;12.00;;
76814;SDS011;65768;49.906;19.384;2023-06-22T13:27:53;15.30;;;11.80;;
76814;SDS011;65768;49.906;19.384;2023-06-22T13:30:21;14.70;;;12.20;;
76814;SDS011;65768;49.906;19.384;2023-06-22T13:32:49;18.90;;;13.80;;
76814;SDS011;65768;49.906;19.384;2023-06-22T13:35:17;16.80;;;11.40;;
76814;SDS011;65768;49.906;19.384;2023-06-22T13:37:46;13.70;;;10.80;;
76814;SDS011;65768;49.906;19.384;2023-06-22T13:40:14;13.10;;;11.20;;
76814;SDS011;65768;49.906;19.384;2023-06-22T13:42:42;12.80;;;11.40;;
76814;SDS011;65768;49.906;19.384;2023-06-22T13:45:10;13.90;;;10.50;;
76814;SDS011;65768;49.906;19.384;2023-06-22T13:47:38;12.40;;;10.80;;
76814;SDS011;65768;49.906;19.384;2023-06-22T13:50:07;11.80;;;9.70;;
76814;SDS011;65768;49.906;19.384;2023-06-22T13:52:41;12.40;;;9.10;;
76814;SDS011;65768;49.906;19.384;2023-06-22T13:55:10;11.90;;;9.00;;
76814;SDS011;65768;49.906;19.384;2023-06-22T13:57:40;11.50;;;9.50;;
76814;SDS011;65768;49.906;19.384;2023-06-22T14:00:09;11.80;;;9.20;;
76814;SDS011;65768;49.906;19.384;2023-06-22T14:02:40;11.20;;;9.20;;
76814;SDS011;65768;49.906;19.384;2023-06-22T14:05:10;11.90;;;9.80;;
76814;SDS011;65768;49.906;19.384;2023-06-22T14:07:40;11.80;;;10.10;;
76814;SDS011;65768;49.906;19.384;2023-06-22T14:10:09;13.70;;;10.90;;
76814;SDS011;65768;49.906;19.384;2023-06-22T14:12:39;12.90;;;9.20;;
76814;SDS011;65768;49.906;19.384;2023-06-22T14:15:08;10.90;;;9.10;;
76814;SDS011;65768;49.906;19.384;2023-06-22T14:17:38;10.20;;;8.90;;
76814;SDS011;65768;49.906;19.384;2023-06-22T14:28:08;8.90;;;8.00;;
76814;SDS011;65768;49.906;19.384;2023-06-22T14:30:36;10.80;;;7.40;;
76814;SDS011;65768;49.906;19.384;2023-06-22T14:37:18;9.30;;;7.20;;
76814;SDS011;65768;49.906;19.384;2023-06-22T14:39:46;9.90;;;7.70;;
76814;SDS011;65768;49.906;19.384;2023-06-22T14:42:14;9.10;;;7.10;;
76814;SDS011;65768;49.906;19.384;2023-06-22T14:44:42;8.60;;;7.00;;
76814;SDS011;65768;49.906;19.384;2023-06-22T14:51:11;8.60;;;7.10;;
76814;SDS011;65768;49.906;19.384;2023-06-22T14:53:39;9.20;;;5.90;;
76814;SDS011;65768;49.906;19.384;2023-06-22T14:56:07;6.70;;;5.90;;